Time;durP1;ratioP1;P1;durP2;ratioP2;P2;SDS_P1;SDS_P2;PMS_P1;PMS_P2;Temp;Humidity;BMP_temperature;BMP_pressure;BME280_temperature;BME280_humidity;BME280_pressure;Samples;Min_cycle;Max_cycle;Signal;HPM_P1;HPM_P2
2023/09/03 00:01:07;;;;;;;4.43;3.77;;;;;;;;;;5071241;28;20283;-55
2023/09/03 00:03:33;;;;;;;3.97;3.57;;;;;;;;;;5071154;28;20207;-55
2023/09/03 00:05:59;;;;;;;4.20;3.80;;;;;;;;;;5071440;28;20196;-55
2023/09/03 00:08:25;;;;;;;4.90;3.60;;;;;;;;;;5071608;28;20199;-55
2023/09/03 00:10:51;;;;;;;4.50;3.87;;;;;;;;;;5071405;28;20207;-55
2023/09/03 00:13:17;;;;;;;4.20;3.57;;;;;;;;;;5071143;28;20199;-55
2023/09/03 00:15:44;;;;;;;3.87;3.57;;;;;;;;;;5071193;28;20231;-55
2023/09/03 00:18:12;;;;;;;4.20;3.80;;;;;;;;;;5067821;28;20605;-54
2023/09/03 00:20:38;;;;;;;5.77;4.47;;;;;;;;;;5069692;28;20208;-53
2023/09/03 00:23:04;;;;;;;4.57;4.03;;;;;;;;;;5069546;28;20191;-54
2023/09/03 00:25:34;;;;;;;4.87;3.60;;;;;;;;;;5071121;28;20640;-53
2023/09/03 00:28:00;;;;;;;4.17;3.77;;;;;;;;;;5071254;28;20223;-53
2023/09/03 00:30:26;;;;;;;4.40;4.00;;;;;;;;;;5071284;28;20203;-53
2023/09/03 00:32:52;;;;;;;4.13;3.73;;;;;;;;;;5071245;28;20210;-53
2023/09/03 00:35:21;;;;;;;3.60;3.30;;;;;;;;;;5071105;28;20376;-53
2023/09/03 00:37:47;;;;;;;4.10;3.80;;;;;;;;;;5071231;28;20227;-53
2023/09/03 00:40:13;;;;;;;3.90;3.50;;;;;;;;;;5071234;28;20196;-53
2023/09/03 00:42:39;;;;;;;4.33;3.93;;;;;;;;;;5070913;28;20718;-53
2023/09/03 00:45:05;;;;;;;4.90;4.33;;;;;;;;;;5071846;28;20282;-53
2023/09/03 00:47:32;;;;;;;3.80;3.50;;;;;;;;;;5074689;28;20207;-53
2023/09/03 00:49:58;;;;;;;3.90;3.50;;;;;;;;;;5074764;28;20195;-53
2023/09/03 00:52:26;;;;;;;3.73;3.43;;;;;;;;;;5074787;28;20226;-53
2023/09/03 00:54:53;;;;;;;4.00;3.60;;;;;;;;;;5074524;28;20223;-53
2023/09/03 00:57:19;;;;;;;4.20;3.80;;;;;;;;;;5074557;28;20199;-53
2023/09/03 00:59:46;;;;;;;4.40;4.00;;;;;;;;;;5074491;28;20199;-53
2023/09/03 01:02:13;;;;;;;4.70;4.30;;;;;;;;;;5074558;28;20230;-53
2023/09/03 01:04:39;;;;;;;5.10;4.63;;;;;;;;;;5074464;28;20233;-53
2023/09/03 01:07:05;;;;;;;4.83;4.30;;;;;;;;;;5074432;28;20200;-53
2023/09/03 01:09:33;;;;;;;5.23;4.73;;;;;;;;;;5074291;28;20646;-53
2023/09/03 01:12:03;;;;;;;5.30;4.80;;;;;;;;;;5074281;28;20207;-53
2023/09/03 01:14:36;;;;;;;4.30;3.90;;;;;;;;;;5074101;28;20310;-53
2023/09/03 01:17:04;;;;;;;5.33;4.10;;;;;;;;;;5074345;28;20208;-53
2023/09/03 01:20:06;;;;;;;4.80;4.13;;;;;;;;;;5073968;28;20203;-53
2023/09/03 01:22:49;;;;;;;4.43;4.00;;;;;;;;;;5012163;28;20275;-53
2023/09/03 01:25:23;;;;;;;4.27;3.93;;;;;;;;;;5011820;28;20299;-53
2023/09/03 01:27:52;;;;;;;4.90;4.47;;;;;;;;;;5050682;28;20203;-53
2023/09/03 01:30:19;;;;;;;5.00;4.60;;;;;;;;;;5073989;28;20815;-53
2023/09/03 01:32:47;;;;;;;5.37;4.87;;;;;;;;;;5073846;28;20208;-53
2023/09/03 01:35:13;;;;;;;4.90;4.40;;;;;;;;;;5073907;28;20613;-53
2023/09/03 01:37:39;;;;;;;5.03;4.47;;;;;;;;;;5073945;28;20562;-53
2023/09/03 01:40:05;;;;;;;4.23;3.90;;;;;;;;;;5073861;28;20199;-53
2023/09/03 01:42:31;;;;;;;4.80;4.30;;;;;;;;;;5073405;28;20250;-53
2023/09/03 01:44:58;;;;;;;5.90;4.90;;;;;;;;;;5073635;28;20203;-53
2023/09/03 01:47:28;;;;;;;5.13;4.47;;;;;;;;;;5073741;28;20202;-53
2023/09/03 01:49:57;;;;;;;5.23;4.77;;;;;;;;;;5073561;28;20207;-53
2023/09/03 01:52:27;;;;;;;4.90;4.33;;;;;;;;;;5073612;28;20200;-53
2023/09/03 01:54:55;;;;;;;6.10;5.23;;;;;;;;;;5073539;28;20218;-53
2023/09/03 01:57:24;;;;;;;5.10;4.70;;;;;;;;;;5072420;28;20195;-53
2023/09/03 01:59:53;;;;;;;4.63;4.20;;;;;;;;;;5073367;28;20207;-53
2023/09/03 02:02:20;;;;;;;5.47;4.97;;;;;;;;;;5073471;28;20195;-53
2023/09/03 02:04:48;;;;;;;5.80;4.73;;;;;;;;;;5073197;28;20287;-53
2023/09/03 02:07:14;;;;;;;7.33;5.37;;;;;;;;;;5073361;28;20246;-53
2023/09/03 02:09:40;;;;;;;6.00;5.50;;;;;;;;;;5073173;28;20290;-53
2023/09/03 02:12:06;;;;;;;5.53;5.03;;;;;;;;;;5073200;28;20195;-53
2023/09/03 02:14:32;;;;;;;6.00;5.20;;;;;;;;;;5072906;28;20356;-53
2023/09/03 02:16:58;;;;;;;5.87;4.93;;;;;;;;;;5073022;28;20635;-53
2023/09/03 02:19:24;;;;;;;6.40;5.80;;;;;;;;;;5073011;28;20219;-53
2023/09/03 02:21:52;;;;;;;7.27;6.60;;;;;;;;;;5072828;28;20187;-53
2023/09/03 02:24:18;;;;;;;7.27;6.53;;;;;;;;;;5072914;28;20771;-53
2023/09/03 02:26:45;;;;;;;7.90;5.53;;;;;;;;;;5072685;28;20286;-53
2023/09/03 02:29:11;;;;;;;6.37;5.53;;;;;;;;;;5072919;28;20191;-54
2023/09/03 02:31:37;;;;;;;6.77;6.07;;;;;;;;;;5072798;28;20202;-54
2023/09/03 02:34:04;;;;;;;7.40;6.70;;;;;;;;;;5072653;28;20231;-54
2023/09/03 02:36:33;;;;;;;6.07;5.40;;;;;;;;;;5072588;28;20219;-53
2023/09/03 02:39:01;;;;;;;6.23;5.63;;;;;;;;;;5072503;28;20200;-53
2023/09/03 02:41:29;;;;;;;5.73;5.13;;;;;;;;;;5072616;28;20207;-53
2023/09/03 02:43:56;;;;;;;5.90;5.30;;;;;;;;;;5072246;28;20652;-53
2023/09/03 02:46:22;;;;;;;6.13;5.53;;;;;;;;;;5072597;28;20211;-53
2023/09/03 02:48:48;;;;;;;5.83;5.23;;;;;;;;;;5072321;28;20195;-53
2023/09/03 02:51:14;;;;;;;5.93;5.33;;;;;;;;;;5072430;28;20241;-53
2023/09/03 02:53:42;;;;;;;5.60;5.10;;;;;;;;;;5072301;28;20644;-53
2023/09/03 02:56:10;;;;;;;5.67;5.17;;;;;;;;;;5072335;28;20631;-53
2023/09/03 02:58:38;;;;;;;5.40;4.97;;;;;;;;;;5072230;28;20243;-53
2023/09/03 03:01:04;;;;;;;6.93;5.97;;;;;;;;;;5072220;28;20564;-53
2023/09/03 03:03:30;;;;;;;6.23;5.63;;;;;;;;;;5072167;28;20290;-54
2023/09/03 03:05:56;;;;;;;6.83;6.23;;;;;;;;;;5072259;28;20290;-54
2023/09/03 03:08:22;;;;;;;6.77;6.17;;;;;;;;;;5072029;28;20282;-53
2023/09/03 03:10:50;;;;;;;7.47;6.60;;;;;;;;;;5071988;28;20238;-54
2023/09/03 03:13:17;;;;;;;7.10;6.10;;;;;;;;;;5072141;28;20206;-53
2023/09/03 03:15:46;;;;;;;6.30;5.70;;;;;;;;;;5071818;28;20234;-53
2023/09/03 03:18:12;;;;;;;6.53;5.50;;;;;;;;;;5072225;28;20203;-53
2023/09/03 03:20:38;;;;;;;6.30;5.70;;;;;;;;;;5071933;28;20256;-53
2023/09/03 03:23:04;;;;;;;5.73;5.23;;;;;;;;;;5072003;28;20199;-53
2023/09/03 03:25:30;;;;;;;5.53;5.03;;;;;;;;;;5071841;28;20331;-53
2023/09/03 03:27:56;;;;;;;5.60;5.10;;;;;;;;;;5071940;28;20195;-53
2023/09/03 03:30:23;;;;;;;6.27;5.00;;;;;;;;;;5071938;28;20195;-53
2023/09/03 03:32:49;;;;;;;5.77;5.17;;;;;;;;;;5071777;28;20564;-53
2023/09/03 03:35:16;;;;;;;6.20;5.10;;;;;;;;;;5071713;28;20222;-53
2023/09/03 03:37:42;;;;;;;6.17;5.57;;;;;;;;;;5070575;28;20202;-53
2023/09/03 03:40:09;;;;;;;5.37;4.97;;;;;;;;;;5071933;28;20282;-54
2023/09/03 03:42:35;;;;;;;5.60;5.10;;;;;;;;;;5071458;28;20235;-53
2023/09/03 03:45:01;;;;;;;5.87;5.37;;;;;;;;;;5071769;28;20206;-53
2023/09/03 03:47:28;;;;;;;5.57;5.17;;;;;;;;;;5071841;28;20617;-53
2023/09/03 03:49:54;;;;;;;6.10;5.60;;;;;;;;;;5071612;28;20719;-53
2023/09/03 03:52:20;;;;;;;5.93;5.10;;;;;;;;;;5071690;28;20557;-53
2023/09/03 03:54:47;;;;;;;6.77;6.07;;;;;;;;;;5071442;28;20215;-53
2023/09/03 03:57:13;;;;;;;5.83;5.33;;;;;;;;;;5071620;28;20294;-53
2023/09/03 03:59:39;;;;;;;6.20;5.17;;;;;;;;;;5071472;28;20283;-53
2023/09/03 04:02:06;;;;;;;6.47;5.73;;;;;;;;;;5071515;28;20533;-53
2023/09/03 04:04:33;;;;;;;6.70;6.10;;;;;;;;;;5071462;28;20199;-53
2023/09/03 04:06:59;;;;;;;6.17;5.57;;;;;;;;;;5071581;28;20245;-53
2023/09/03 04:09:25;;;;;;;6.63;6.03;;;;;;;;;;5071622;28;20672;-53
2023/09/03 04:11:51;;;;;;;7.10;6.40;;;;;;;;;;5071367;28;20253;-53
2023/09/03 04:14:17;;;;;;;7.97;7.17;;;;;;;;;;5071374;28;20231;-53
2023/09/03 04:16:43;;;;;;;7.40;6.57;;;;;;;;;;5071344;28;20557;-54
2023/09/03 04:19:09;;;;;;;6.57;5.97;;;;;;;;;;5071551;28;20265;-54
2023/09/03 04:21:36;;;;;;;6.77;6.17;;;;;;;;;;5074486;28;20662;-54
2023/09/03 04:24:03;;;;;;;6.10;5.50;;;;;;;;;;5075278;28;20200;-53
2023/09/03 04:26:29;;;;;;;7.70;7.00;;;;;;;;;;5075146;28;20578;-53
2023/09/03 04:28:55;;;;;;;8.20;7.40;;;;;;;;;;5075147;28;20673;-53
2023/09/03 04:31:21;;;;;;;8.70;7.90;;;;;;;;;;5075379;28;20610;-53
2023/09/03 04:33:47;;;;;;;8.47;7.60;;;;;;;;;;5074791;28;20913;-53
2023/09/03 04:36:13;;;;;;;10.00;8.83;;;;;;;;;;5074878;28;20653;-54
2023/09/03 04:38:40;;;;;;;12.97;9.60;;;;;;;;;;5075089;28;20293;-54
2023/09/03 04:41:06;;;;;;;13.97;9.40;;;;;;;;;;5074951;28;20226;-53
2023/09/03 04:43:32;;;;;;;11.03;9.93;;;;;;;;;;5074320;28;20250;-53
2023/09/03 04:45:59;;;;;;;11.07;9.77;;;;;;;;;;5074075;28;20210;-53
2023/09/03 04:48:25;;;;;;;10.10;8.73;;;;;;;;;;5074974;28;20219;-53
2023/09/03 04:50:51;;;;;;;10.23;8.43;;;;;;;;;;5074952;28;20183;-53
2023/09/03 04:53:18;;;;;;;11.27;10.17;;;;;;;;;;5074388;28;20192;-53
2023/09/03 04:55:45;;;;;;;9.30;8.23;;;;;;;;;;5074441;28;20239;-54
2023/09/03 04:58:11;;;;;;;8.90;8.00;;;;;;;;;;5074561;28;20732;-53
2023/09/03 05:00:37;;;;;;;8.60;7.80;;;;;;;;;;5074492;28;20209;-53
2023/09/03 05:03:04;;;;;;;8.20;7.33;;;;;;;;;;5074591;28;20199;-54
2023/09/03 05:05:31;;;;;;;7.93;7.13;;;;;;;;;;5074405;28;20195;-54
2023/09/03 05:07:57;;;;;;;8.80;7.87;;;;;;;;;;5074512;28;20205;-53
2023/09/03 05:10:23;;;;;;;8.20;7.50;;;;;;;;;;5074453;28;20200;-54
2023/09/03 05:12:50;;;;;;;9.37;7.83;;;;;;;;;;5074212;28;20199;-53
2023/09/03 05:15:16;;;;;;;8.77;7.87;;;;;;;;;;5074295;28;20247;-54
2023/09/03 05:17:42;;;;;;;9.30;8.30;;;;;;;;;;5074129;28;20614;-54
2023/09/03 05:20:09;;;;;;;9.07;7.90;;;;;;;;;;5074323;28;20542;-54
2023/09/03 05:22:35;;;;;;;8.30;7.40;;;;;;;;;;5074122;28;20274;-53
2023/09/03 05:25:01;;;;;;;9.23;8.30;;;;;;;;;;5073956;28;20223;-54
2023/09/03 05:27:29;;;;;;;7.70;7.00;;;;;;;;;;5074499;28;20215;-54
2023/09/03 05:29:56;;;;;;;8.27;7.37;;;;;;;;;;5074001;28;20561;-54
2023/09/03 05:32:23;;;;;;;7.50;6.80;;;;;;;;;;5073901;28;20203;-53
2023/09/03 05:34:49;;;;;;;9.53;8.13;;;;;;;;;;5073630;28;20275;-54
2023/09/03 05:37:15;;;;;;;10.30;9.00;;;;;;;;;;5073923;28;20261;-54
2023/09/03 05:39:41;;;;;;;9.97;8.97;;;;;;;;;;5073837;28;20195;-54
2023/09/03 05:42:07;;;;;;;10.67;9.70;;;;;;;;;;5073600;28;20654;-53
2023/09/03 05:44:33;;;;;;;10.67;9.47;;;;;;;;;;5073734;28;20649;-54
2023/09/03 05:47:01;;;;;;;11.43;9.90;;;;;;;;;;5073570;28;20220;-54
2023/09/03 05:49:27;;;;;;;9.00;8.17;;;;;;;;;;5073612;28;20198;-54
2023/09/03 05:51:53;;;;;;;9.00;8.13;;;;;;;;;;5073477;28;20294;-54
2023/09/03 05:54:19;;;;;;;8.70;7.90;;;;;;;;;;5073386;28;20218;-54
2023/09/03 05:56:45;;;;;;;9.10;8.20;;;;;;;;;;5073340;28;20287;-55
2023/09/03 05:59:11;;;;;;;10.30;9.13;;;;;;;;;;5073484;28;20282;-55
2023/09/03 06:01:38;;;;;;;10.17;9.17;;;;;;;;;;5073396;28;20272;-55
2023/09/03 06:04:07;;;;;;;10.90;9.97;;;;;;;;;;5073308;28;20200;-54
2023/09/03 06:06:37;;;;;;;11.60;10.50;;;;;;;;;;5073290;28;20230;-55
2023/09/03 06:09:03;;;;;;;10.83;9.37;;;;;;;;;;5073193;28;20195;-54
2023/09/03 06:11:29;;;;;;;11.40;10.30;;;;;;;;;;5073129;28;20195;-56
2023/09/03 06:13:56;;;;;;;12.17;10.93;;;;;;;;;;5073005;28;20204;-54
2023/09/03 06:16:22;;;;;;;12.00;10.80;;;;;;;;;;5073003;28;20723;-55
2023/09/03 06:18:48;;;;;;;13.07;10.13;;;;;;;;;;5072957;28;20196;-54
2023/09/03 06:21:15;;;;;;;13.23;11.00;;;;;;;;;;5072979;28;20198;-54
2023/09/03 06:23:41;;;;;;;13.83;11.50;;;;;;;;;;5072901;28;20253;-54
2023/09/03 06:26:07;;;;;;;15.17;10.97;;;;;;;;;;5072804;28;20603;-54
2023/09/03 06:28:33;;;;;;;12.10;10.87;;;;;;;;;;5072628;28;20249;-54
2023/09/03 06:31:01;;;;;;;10.20;9.20;;;;;;;;;;5072458;28;20299;-55
2023/09/03 06:33:27;;;;;;;11.27;10.17;;;;;;;;;;5072730;28;20196;-54
2023/09/03 06:35:53;;;;;;;10.47;9.37;;;;;;;;;;5072543;28;20242;-54
2023/09/03 06:38:20;;;;;;;11.50;9.97;;;;;;;;;;5072667;28;20229;-54
2023/09/03 06:40:48;;;;;;;10.97;9.97;;;;;;;;;;5072441;28;20204;-54
2023/09/03 06:43:14;;;;;;;9.20;8.40;;;;;;;;;;5071758;28;20234;-54
2023/09/03 06:45:40;;;;;;;8.90;8.10;;;;;;;;;;5072528;28;20712;-54
2023/09/03 06:48:08;;;;;;;10.10;9.17;;;;;;;;;;5072328;28;20218;-54
2023/09/03 06:50:34;;;;;;;9.07;8.17;;;;;;;;;;5072315;28;20196;-54
2023/09/03 06:53:00;;;;;;;8.77;7.70;;;;;;;;;;5072329;28;20662;-54
2023/09/03 06:55:28;;;;;;;8.80;7.43;;;;;;;;;;5072120;28;20773;-54
2023/09/03 06:57:54;;;;;;;8.80;8.00;;;;;;;;;;5072191;28;20253;-54
2023/09/03 07:00:20;;;;;;;8.90;8.00;;;;;;;;;;5072128;28;20191;-54
2023/09/03 07:02:46;;;;;;;9.73;8.83;;;;;;;;;;5072043;28;21009;-53
2023/09/03 07:05:14;;;;;;;9.77;8.77;;;;;;;;;;5072276;28;20199;-54
2023/09/03 07:07:40;;;;;;;8.67;7.77;;;;;;;;;;5072250;28;20245;-54
2023/09/03 07:10:06;;;;;;;9.87;8.43;;;;;;;;;;5072028;28;20368;-54
2023/09/03 07:12:33;;;;;;;9.90;8.97;;;;;;;;;;5072126;28;20195;-54
2023/09/03 07:15:02;;;;;;;10.20;9.20;;;;;;;;;;5071923;28;20220;-55
2023/09/03 07:17:28;;;;;;;10.93;9.87;;;;;;;;;;5071986;28;20203;-55
2023/09/03 07:19:55;;;;;;;10.07;9.10;;;;;;;;;;5071964;28;20206;-59
2023/09/03 07:22:21;;;;;;;15.87;9.20;;;;;;;;;;5071921;28;20203;-56
2023/09/03 07:24:47;;;;;;;9.87;8.87;;;;;;;;;;5071815;28;20206;-56
2023/09/03 07:27:15;;;;;;;9.27;8.37;;;;;;;;;;5071930;28;20196;-57
2023/09/03 07:29:43;;;;;;;8.03;7.23;;;;;;;;;;5071836;28;20658;-57
2023/09/03 07:32:09;;;;;;;9.30;8.10;;;;;;;;;;5071897;28;20677;-57
2023/09/03 07:34:35;;;;;;;8.30;7.50;;;;;;;;;;5071533;28;20716;-55
2023/09/03 07:37:01;;;;;;;9.97;8.57;;;;;;;;;;5071023;28;20692;-56
2023/09/03 07:39:27;;;;;;;8.50;7.70;;;;;;;;;;5071678;28;20195;-56
2023/09/03 07:41:56;;;;;;;9.40;8.40;;;;;;;;;;5071333;28;20210;-55
2023/09/03 07:44:22;;;;;;;8.23;6.60;;;;;;;;;;5069563;28;20244;-57
2023/09/03 07:46:49;;;;;;;9.03;8.07;;;;;;;;;;5071179;28;20670;-55
2023/09/03 07:49:15;;;;;;;7.23;6.53;;;;;;;;;;5071520;28;20210;-56
2023/09/03 07:51:41;;;;;;;7.73;6.80;;;;;;;;;;5071298;28;20204;-56
2023/09/03 07:54:08;;;;;;;9.57;7.10;;;;;;;;;;5071329;28;20271;-57
2023/09/03 07:56:34;;;;;;;6.97;6.00;;;;;;;;;;5074648;28;20253;-56
2023/09/03 07:59:01;;;;;;;6.70;5.70;;;;;;;;;;5075318;28;20206;-56
2023/09/03 08:01:27;;;;;;;8.00;6.43;;;;;;;;;;5075538;28;20213;-56
2023/09/03 08:03:56;;;;;;;7.00;5.57;;;;;;;;;;5075282;28;20196;-56
2023/09/03 08:06:22;;;;;;;8.43;6.43;;;;;;;;;;5075439;28;20204;-56
2023/09/03 08:08:53;;;;;;;7.53;5.90;;;;;;;;;;5075099;28;20206;-56
2023/09/03 08:11:19;;;;;;;10.80;9.80;;;;;;;;;;5075272;28;20215;-56
2023/09/03 08:13:45;;;;;;;6.70;6.00;;;;;;;;;;5074954;28;20188;-56
2023/09/03 08:16:11;;;;;;;6.20;5.60;;;;;;;;;;5073714;28;20570;-56
2023/09/03 08:18:37;;;;;;;5.23;4.60;;;;;;;;;;5074801;28;20252;-56
2023/09/03 08:21:04;;;;;;;5.93;4.90;;;;;;;;;;5074944;28;20197;-56
2023/09/03 08:23:30;;;;;;;6.07;4.27;;;;;;;;;;5072597;28;20272;-56
2023/09/03 08:25:57;;;;;;;4.33;3.60;;;;;;;;;;5074708;28;20654;-56
2023/09/03 08:28:23;;;;;;;7.03;3.10;;;;;;;;;;5074921;28;20214;-56
2023/09/03 08:30:49;;;;;;;2.53;2.33;;;;;;;;;;5074716;28;20195;-55
2023/09/03 08:33:15;;;;;;;3.30;2.33;;;;;;;;;;5074625;28;20195;-57
2023/09/03 08:35:41;;;;;;;3.83;2.73;;;;;;;;;;5074662;28;20233;-56
2023/09/03 08:38:08;;;;;;;2.83;2.30;;;;;;;;;;5074673;28;20673;-56
2023/09/03 08:40:36;;;;;;;3.27;2.90;;;;;;;;;;5074072;28;20258;-56
2023/09/03 08:43:03;;;;;;;3.67;2.23;;;;;;;;;;5073999;28;20249;-56
2023/09/03 08:45:31;;;;;;;2.40;2.20;;;;;;;;;;5074324;28;20607;-56
2023/09/03 08:47:57;;;;;;;3.83;2.43;;;;;;;;;;5074369;28;20302;-55
2023/09/03 08:50:24;;;;;;;5.77;2.80;;;;;;;;;;5074423;28;20207;-56
2023/09/03 08:52:52;;;;;;;2.90;2.30;;;;;;;;;;5074215;28;20234;-55
2023/09/03 08:55:19;;;;;;;2.20;1.97;;;;;;;;;;5073948;28;20263;-56
2023/09/03 08:57:46;;;;;;;2.90;2.30;;;;;;;;;;5073954;28;20196;-56
2023/09/03 09:00:12;;;;;;;4.10;2.30;;;;;;;;;;5074438;28;20223;-57
2023/09/03 09:02:39;;;;;;;2.83;2.07;;;;;;;;;;5074055;28;20203;-56
2023/09/03 09:05:05;;;;;;;2.07;1.80;;;;;;;;;;5073998;28;20609;-57
2023/09/03 09:07:32;;;;;;;1.70;1.37;;;;;;;;;;5073661;28;20253;-56
2023/09/03 09:09:58;;;;;;;3.07;1.80;;;;;;;;;;5073912;28;20668;-56
2023/09/03 09:12:30;;;;;;;3.63;1.97;;;;;;;;;;5074098;28;20279;-56
2023/09/03 09:15:00;;;;;;;2.43;1.80;;;;;;;;;;5073647;28;20216;-56
2023/09/03 09:17:28;;;;;;;2.87;1.73;;;;;;;;;;5073893;28;20666;-56
2023/09/03 09:19:57;;;;;;;2.53;1.50;;;;;;;;;;5073884;28;20202;-57
2023/09/03 09:22:23;;;;;;;1.53;1.37;;;;;;;;;;5073937;28;20220;-56
2023/09/03 09:24:49;;;;;;;1.97;1.40;;;;;;;;;;5073692;28;20674;-56
2023/09/03 09:27:16;;;;;;;2.10;1.37;;;;;;;;;;5073791;28;20204;-56
2023/09/03 09:29:44;;;;;;;1.87;1.47;;;;;;;;;;5073744;28;20188;-56
2023/09/03 09:32:20;;;;;;;2.90;1.70;;;;;;;;;;5073583;28;20210;-57
2023/09/03 09:34:46;;;;;;;1.30;1.20;;;;;;;;;;5073297;28;20324;-56
2023/09/03 09:37:15;;;;;;;2.57;1.40;;;;;;;;;;5073644;28;20218;-56
2023/09/03 09:39:42;;;;;;;2.40;1.30;;;;;;;;;;5073314;28;20203;-57
2023/09/03 09:42:10;;;;;;;6.10;5.60;;;;;;;;;;5073148;28;20195;-55
2023/09/03 09:44:36;;;;;;;2.73;1.40;;;;;;;;;;5073497;28;20257;-55
2023/09/03 09:47:16;;;;;;;2.53;1.40;;;;;;;;;;5073108;28;20723;-55
2023/09/03 09:49:42;;;;;;;2.80;1.43;;;;;;;;;;5073330;28;20205;-55
2023/09/03 09:52:09;;;;;;;1.77;1.60;;;;;;;;;;5073259;28;20196;-55
2023/09/03 09:54:37;;;;;;;3.03;1.50;;;;;;;;;;5073134;28;20219;-56
2023/09/03 09:57:09;;;;;;;2.90;1.70;;;;;;;;;;5073118;28;20188;-55
2023/09/03 09:59:35;;;;;;;1.90;1.20;;;;;;;;;;5073205;28;20195;-54
2023/09/03 10:02:12;;;;;;;1.97;1.30;;;;;;;;;;5071050;28;20196;-54
2023/09/03 10:04:41;;;;;;;1.50;1.30;;;;;;;;;;5072915;28;20294;-55
2023/09/03 10:07:08;;;;;;;1.50;1.20;;;;;;;;;;5072922;28;20216;-55
2023/09/03 10:09:37;;;;;;;2.17;1.40;;;;;;;;;;5072994;28;20201;-55
2023/09/03 10:12:03;;;;;;;1.70;1.30;;;;;;;;;;5072614;28;20301;-55
2023/09/03 10:14:30;;;;;;;2.13;1.50;;;;;;;;;;5071222;28;20282;-55
2023/09/03 10:16:57;;;;;;;1.63;1.33;;;;;;;;;;5072435;28;20200;-55
2023/09/03 10:19:24;;;;;;;3.73;1.60;;;;;;;;;;5072106;28;20197;-55
2023/09/03 10:21:55;;;;;;;2.57;1.30;;;;;;;;;;5072595;28;20288;-55
2023/09/03 10:24:21;;;;;;;2.20;1.40;;;;;;;;;;5072666;28;20725;-55
2023/09/03 10:26:51;;;;;;;1.63;1.40;;;;;;;;;;5072292;28;20205;-54
2023/09/03 10:29:19;;;;;;;4.40;1.70;;;;;;;;;;5072803;28;20197;-54
2023/09/03 10:31:46;;;;;;;1.63;1.50;;;;;;;;;;5072421;28;20233;-54
2023/09/03 10:34:15;;;;;;;1.63;1.50;;;;;;;;;;5072593;28;20199;-55
2023/09/03 10:36:55;;;;;;;1.70;1.23;;;;;;;;;;5072586;28;20361;-55
2023/09/03 10:39:23;;;;;;;1.73;1.30;;;;;;;;;;5072023;28;20199;-55
2023/09/03 10:42:09;;;;;;;3.27;1.70;;;;;;;;;;5072345;28;20577;-54
2023/09/03 10:44:35;;;;;;;1.97;1.53;;;;;;;;;;5072402;28;20676;-54
2023/09/03 10:47:01;;;;;;;1.33;1.20;;;;;;;;;;5072274;28;20206;-54
2023/09/03 10:49:40;;;;;;;1.40;1.30;;;;;;;;;;5072388;28;20207;-54
2023/09/03 10:52:21;;;;;;;1.80;1.40;;;;;;;;;;5072213;28;20233;-55
2023/09/03 10:55:08;;;;;;;2.83;1.50;;;;;;;;;;5071830;28;20222;-56
2023/09/03 10:57:35;;;;;;;2.90;1.67;;;;;;;;;;5072029;28;20210;-55
2023/09/03 11:00:11;;;;;;;3.43;2.33;;;;;;;;;;5072048;28;20318;-56
2023/09/03 11:02:37;;;;;;;1.67;1.40;;;;;;;;;;5071994;28;20198;-53
2023/09/03 11:05:10;;;;;;;1.80;1.27;;;;;;;;;;5071965;28;20277;-55
2023/09/03 11:07:36;;;;;;;2.50;1.50;;;;;;;;;;5071814;28;20301;-55
2023/09/03 11:10:17;;;;;;;1.73;1.30;;;;;;;;;;5071869;28;20199;-56
2023/09/03 11:12:44;;;;;;;1.83;1.30;;;;;;;;;;5071538;28;20658;-55
2023/09/03 11:15:11;;;;;;;3.47;1.83;;;;;;;;;;5071669;28;20315;-55
2023/09/03 11:17:37;;;;;;;2.67;1.80;;;;;;;;;;5071668;28;20203;-56
2023/09/03 11:20:03;;;;;;;2.53;1.47;;;;;;;;;;5071542;28;20203;-55
2023/09/03 11:22:36;;;;;;;2.77;1.50;;;;;;;;;;5071967;28;20617;-55
2023/09/03 11:25:02;;;;;;;3.03;1.50;;;;;;;;;;5071892;28;20239;-55
2023/09/03 11:27:29;;;;;;;1.90;1.70;;;;;;;;;;5071747;28;20205;-55
2023/09/03 11:30:04;;;;;;;2.30;1.70;;;;;;;;;;5071031;28;20221;-55
2023/09/03 11:32:36;;;;;;;2.83;1.93;;;;;;;;;;5071731;28;20196;-55
2023/09/03 11:35:02;;;;;;;2.23;1.60;;;;;;;;;;5071642;28;20274;-55
2023/09/03 11:37:28;;;;;;;2.50;1.57;;;;;;;;;;5071813;28;20230;-54
2023/09/03 11:39:54;;;;;;;1.97;1.40;;;;;;;;;;5071890;28;20566;-55
2023/09/03 11:42:22;;;;;;;1.87;1.30;;;;;;;;;;5071475;28;20678;-55
2023/09/03 11:44:50;;;;;;;1.70;1.50;;;;;;;;;;5071548;28;20590;-55
2023/09/03 11:47:18;;;;;;;2.43;1.80;;;;;;;;;;5071691;28;20202;-54
2023/09/03 11:49:47;;;;;;;1.73;1.40;;;;;;;;;;5071619;28;20639;-55
2023/09/03 11:52:14;;;;;;;3.00;1.70;;;;;;;;;;5069170;28;20210;-54
2023/09/03 11:54:40;;;;;;;3.23;1.50;;;;;;;;;;5067054;28;20695;-55
2023/09/03 11:57:08;;;;;;;1.70;1.50;;;;;;;;;;5066002;28;20687;-55
2023/09/03 11:59:34;;;;;;;2.47;1.80;;;;;;;;;;5070557;28;20239;-55
2023/09/03 12:02:00;;;;;;;2.40;1.50;;;;;;;;;;5070754;28;20201;-55
2023/09/03 12:04:27;;;;;;;2.87;1.80;;;;;;;;;;5070172;28;20279;-54
2023/09/03 12:06:53;;;;;;;1.30;1.20;;;;;;;;;;5071175;28;20254;-55
2023/09/03 12:09:23;;;;;;;1.70;1.40;;;;;;;;;;5070882;28;20200;-54
2023/09/03 12:11:49;;;;;;;1.97;1.63;;;;;;;;;;5070899;28;20667;-54
2023/09/03 12:14:27;;;;;;;2.93;1.50;;;;;;;;;;5071041;28;20198;-56
2023/09/03 12:16:53;;;;;;;2.23;1.50;;;;;;;;;;5061999;28;20246;-56
2023/09/03 12:19:19;;;;;;;2.30;1.57;;;;;;;;;;5050732;28;20193;-55
2023/09/03 12:21:50;;;;;;;1.73;1.40;;;;;;;;;;5050670;28;20246;-55
2023/09/03 12:24:16;;;;;;;2.00;1.60;;;;;;;;;;5050746;28;20233;-56
2023/09/03 12:26:42;;;;;;;1.77;1.50;;;;;;;;;;5047235;28;20207;-56
2023/09/03 12:29:19;;;;;;;1.73;1.60;;;;;;;;;;5050961;28;20201;-56
2023/09/03 12:31:45;;;;;;;2.70;1.70;;;;;;;;;;5048956;28;20199;-56
2023/09/03 12:34:11;;;;;;;2.30;1.57;;;;;;;;;;5050543;28;20255;-56
2023/09/03 12:39:34;;;;;;;2.27;1.40;;;;;;;;;;5088417;28;20560;-55
2023/09/03 12:42:01;;;;;;;2.43;1.60;;;;;;;;;;5088447;28;20206;-55
2023/09/03 12:44:28;;;;;;;2.60;1.60;;;;;;;;;;5088667;28;20199;-55
2023/09/03 12:46:54;;;;;;;1.97;1.43;;;;;;;;;;5088645;28;20605;-55
2023/09/03 12:49:20;;;;;;;1.73;1.30;;;;;;;;;;5088574;28;20237;-55
2023/09/03 12:51:47;;;;;;;2.27;1.70;;;;;;;;;;5088543;28;20280;-56
2023/09/03 12:54:13;;;;;;;1.70;1.43;;;;;;;;;;5088345;28;20274;-56
2023/09/03 12:56:41;;;;;;;1.80;1.57;;;;;;;;;;5088590;28;20559;-56
2023/09/03 12:59:07;;;;;;;1.87;1.50;;;;;;;;;;5088187;28;20640;-56
2023/09/03 13:01:33;;;;;;;1.73;1.63;;;;;;;;;;5088370;28;20196;-55
2023/09/03 13:03:59;;;;;;;2.40;1.50;;;;;;;;;;5088134;28;20287;-56
2023/09/03 13:06:26;;;;;;;1.43;1.33;;;;;;;;;;5088432;28;20226;-56
2023/09/03 13:08:52;;;;;;;1.37;1.20;;;;;;;;;;5088216;28;20225;-56
2023/09/03 13:11:20;;;;;;;3.07;1.50;;;;;;;;;;5088176;28;20230;-56
2023/09/03 13:13:52;;;;;;;1.77;1.30;;;;;;;;;;5088020;28;20196;-56
2023/09/03 13:16:18;;;;;;;1.83;1.53;;;;;;;;;;5088199;28;20615;-56
2023/09/03 13:18:45;;;;;;;2.17;1.43;;;;;;;;;;5087845;28;20247;-56
2023/09/03 13:21:11;;;;;;;2.20;1.50;;;;;;;;;;5088253;28;20289;-56
2023/09/03 13:23:37;;;;;;;1.40;1.30;;;;;;;;;;5088007;28;20199;-56
2023/09/03 13:26:03;;;;;;;2.97;1.40;;;;;;;;;;5088002;28;20667;-56
2023/09/03 13:28:31;;;;;;;1.60;1.50;;;;;;;;;;5087860;28;20197;-56
2023/09/03 13:31:00;;;;;;;2.87;1.63;;;;;;;;;;5087779;28;20686;-56
2023/09/03 13:33:26;;;;;;;3.30;1.53;;;;;;;;;;5087831;28;20209;-56
2023/09/03 13:35:52;;;;;;;1.60;1.30;;;;;;;;;;5087703;28;20564;-56
2023/09/03 13:38:19;;;;;;;1.50;1.40;;;;;;;;;;5087378;28;20799;-56
2023/09/03 13:40:45;;;;;;;2.20;1.60;;;;;;;;;;5087475;28;20663;-57
2023/09/03 13:43:11;;;;;;;3.77;1.30;;;;;;;;;;5087518;28;20241;-55
2023/09/03 13:45:37;;;;;;;2.53;1.50;;;;;;;;;;5087652;28;20197;-55
2023/09/03 13:48:04;;;;;;;3.33;1.47;;;;;;;;;;5087320;28;20437;-55
2023/09/03 13:50:31;;;;;;;2.53;1.30;;;;;;;;;;5075875;28;20233;-56
2023/09/03 13:52:57;;;;;;;2.27;1.30;;;;;;;;;;5073925;28;20255;-55
2023/09/03 13:55:24;;;;;;;2.13;1.20;;;;;;;;;;5074079;28;20201;-56
2023/09/03 13:57:50;;;;;;;2.07;1.60;;;;;;;;;;5073720;28;20230;-56
2023/09/03 14:00:16;;;;;;;2.13;1.40;;;;;;;;;;5073645;28;20251;-56
2023/09/03 14:02:43;;;;;;;2.70;1.30;;;;;;;;;;5073697;28;20201;-63
2023/09/03 14:05:10;;;;;;;1.87;1.43;;;;;;;;;;5073740;28;20208;-57
2023/09/03 14:07:36;;;;;;;1.50;1.40;;;;;;;;;;5073483;28;20193;-56
2023/09/03 14:10:03;;;;;;;2.47;1.57;;;;;;;;;;5073696;28;20549;-56
2023/09/03 14:12:29;;;;;;;1.53;1.10;;;;;;;;;;5073620;28;20217;-55
2023/09/03 14:14:55;;;;;;;1.37;1.27;;;;;;;;;;5073743;28;20198;-55
2023/09/03 14:17:21;;;;;;;2.67;1.40;;;;;;;;;;5073780;28;20194;-55
2023/09/03 14:19:47;;;;;;;1.83;1.50;;;;;;;;;;5073454;28;20573;-55
2023/09/03 14:22:15;;;;;;;2.27;1.30;;;;;;;;;;5065245;28;20194;-55
2023/09/03 14:24:42;;;;;;;1.50;1.40;;;;;;;;;;5051363;28;20207;-56
2023/09/03 14:27:08;;;;;;;2.57;1.67;;;;;;;;;;5053473;28;20206;-56
2023/09/03 14:29:34;;;;;;;1.60;1.47;;;;;;;;;;5053472;28;20208;-55
2023/09/03 14:32:01;;;;;;;1.83;1.20;;;;;;;;;;5053423;28;20281;-55
2023/09/03 14:34:27;;;;;;;1.70;1.47;;;;;;;;;;5053727;28;20212;-55
2023/09/03 14:36:53;;;;;;;1.30;1.20;;;;;;;;;;5053734;28;20240;-54
2023/09/03 14:39:20;;;;;;;2.63;1.83;;;;;;;;;;5061241;28;20248;-54
2023/09/03 14:41:46;;;;;;;1.73;1.47;;;;;;;;;;5073388;28;20211;-54
2023/09/03 14:44:13;;;;;;;1.53;1.33;;;;;;;;;;5073219;28;20221;-54